Ana Sayfa
METAR-TAF:

METAR-TAF

Havaalanları :

İrkutsk, Rusya

Enlem: 52-16N, Boylam: 104-19E, yükseklik: 513 m

Güncel hava durumu gözlemi

Rapor saat 17:00 UTC de 47 dakika önce yapıldı.
Rüzgar değişken yönden 2 kt
Sıcaklık -15°C
Nem 92%
Basınç 1027 hPa
Görüş mesafesi 10 km veya daha fazla
1500 m altında bulut yok ve kümülonimbus yok

METAR: UIII 241700Z VRB01MPS CAVOK M15/M16 Q1027 R30/810560 NOSIG RMK QFE725/0967

Saat: 01:47 (17:47 UTC)

Tahmin

Rapor saat 17:00 UTC de 47 dakika önce yapıldı.
Ayın 24'si saat 18 UTC'den ayın 25'si saat 18 UTC'ye kadar geçerli Tahmin
Rüzgar değişken yönden 2 kt
Görüş mesafesi: 3100 m
Pus, Duman
Geçici
ayın 24'si saat 18 UTC'den ayın 25'si saat 03 UTC'ye kadar
Görüş mesafesi: 0300 m
100 ft yükseklikte
Donan sis

TAF: UIII 241700Z 2418/2518 VRB01MPS 3100 BR FU NSC TEMPO 2418/2503 0300 FZFG VV001

4.000'den fazla havaalanı için hava durumu gözlemleri ve tahminleri (METAR ve TAF raporları).

Kullanılabilir istasyonlar harita üzerinde sarı ve kırmızı noktalarla gösterilir.

İstasyonun adını görmek için fareyi noktanın üzerinde gezdirin.

Sonrasında hava gözlem ve tahminlerini görmek için tıklayın.

Haritayı değiştirmek için: yaklaştırmak için siyah artı işaretli yeşil düğmeye ve uzaklaştırmak için de eksi işaretli düğmeye hızla tıklayın; bitişik haritalar için yeşil okları kullanın.


METAR-TAF: